Containerships 6 — DABH — position and weather

sailwx.info

Track history (hours):
 
Tides and Currents Weather Stations Pressure Air Temp Water Temp Dewpoint Dewpoint Depression Visibility Wind Speed Wind Dir Waves Ship Positions

Containerships 6

Last reported at 2014-Aug-01 04:31 UTC. Time now 2014-Aug-01 05:53 UTC.
Position N 59°58' E 026°26'.

Length 155 m; beam 21.8 m; draft 8.9 m.

Type: Ship (hazmat cat A). MMSI: 211315096.

Date/timePositionNaut miles runAvg speedWind from/ knotsBaromVisibWave heightAir tempDewpointWater temp
2014-Aug-01 04:31N 59°58' E 026°26'1918.1
2014-Aug-01 03:29N 59°53' E 025°50'5318.1
2014-Aug-01 00:32N 59°41' E 024°06'1718.0
2014-Jul-31 23:33N 59°36' E 023°33'251 6.1
2014-Jul-30 06:34N 56°36' E 018°03'1817.6
2014-Jul-30 05:33N 56°25' E 017°38'1817.5
2014-Jul-30 04:33N 56°14' E 017°12'1817.6
2014-Jul-30 03:33N 56°04' E 016°47'1817.7
2014-Jul-30 02:33N 55°55' E 016°19'1817.7
2014-Jul-30 01:33N 55°47' E 015°52'1817.8
2014-Jul-30 00:33N 55°38' E 015°24'1817.9
2014-Jul-29 23:33N 55°29' E 014°56'1917.7
2014-Jul-29 22:30N 55°18' E 014°31'1717.7
2014-Jul-29 21:33N 55°05' E 014°12'1717.3
2014-Jul-29 20:33N 54°56' E 013°46'1817.5
2014-Jul-29 19:33N 54°51' E 013°17'1717.3
2014-Jul-29 18:33N 54°45' E 012°49'1716.7
2014-Jul-29 17:33N 54°37' E 012°23'1615.9
2014-Jul-29 16:33N 54°25' E 012°06'1717.2
2014-Jul-29 15:33N 54°28' E 011°37'1818.2
2014-Jul-29 14:33N 54°35' E 011°07'1716.4
2014-Jul-29 13:32N 54°33' E 010°39'25 3.9
2014-Jul-29 07:04N 54°21' E 010°01'6 5.7
2014-Jul-29 06:04N 54°22' E 009°51'3 6.0
2014-Jul-29 05:31N 54°21' E 009°45'11 4.9
2014-Jul-29 03:20N 54°12' E 009°34'12 6.0
2014-Jul-29 01:21N 54°04' E 009°19'6 7.1
2014-Jul-29 00:28N 53°58' E 009°16'3 3.6
2014-Jul-28 23:31N 53°56' E 009°12'3 2.6
2014-Jul-28 22:18N 53°54' E 009°09'6 8.6
2014-Jul-28 21:33N 53°51' E 008°59'1413.7
2014-Jul-28 20:33N 53°57' E 008°38'1616.4
2014-Jul-28 19:33N 53°59' E 008°10'1717.1
2014-Jul-28 18:33N 53°56' E 007°42'1716.5
2014-Jul-28 17:33N 53°53' E 007°14'1616.2
2014-Jul-28 16:33N 53°49' E 006°48'1616.0
2014-Jul-28 15:32N 53°45' E 006°21'1616.1
2014-Jul-28 14:33N 53°40' E 005°56'1616.2
2014-Jul-28 13:33N 53°35' E 005°30'1615.9
2014-Jul-28 12:33N 53°29' E 005°05'1615.9
2014-Jul-28 11:34N 53°22' E 004°41'1616.4
2014-Jul-28 10:33N 53°07' E 004°28'1616.4
2014-Jul-28 09:33N 52°53' E 004°16'1616.3
2014-Jul-28 08:33N 52°38' E 004°03'1616.0
2014-Jul-28 07:33N 52°24' E 003°53'1716.9
2014-Jul-28 06:34N 52°07' E 003°55'1211.7
2014-Jul-28 05:34N 51°58' E 004°08'1010.3
2014-Jul-28 04:33N 51°54' E 004°23'2 1.5
2014-Jul-28 03:33N 51°53' E 004°25'0 0.0
2014-Jul-28 02:34N 51°53' E 004°25'0 0.0
2014-Jul-28 01:33N 51°53' E 004°25'0 0.0
2014-Jul-28 00:34N 51°53' E 004°25'0 0.0
2014-Jul-27 23:34N 51°53' E 004°25'0 0.0
2014-Jul-27 22:34N 51°53' E 004°25'0 0.0
2014-Jul-27 21:33N 51°53' E 004°25'0 0.0
2014-Jul-27 20:33N 51°53' E 004°25'0 0.0
2014-Jul-27 19:33N 51°53' E 004°25'0 0.0
2014-Jul-27 18:33N 51°53' E 004°25'0 0.0
2014-Jul-27 17:33N 51°53' E 004°25'0 0.0
2014-Jul-27 16:34N 51°53' E 004°25'0 0.0
2014-Jul-27 15:33N 51°53' E 004°25'0 0.0
2014-Jul-27 14:34N 51°53' E 004°25'0 0.0
2014-Jul-27 13:34N 51°53' E 004°25'0 0.0
2014-Jul-27 12:34N 51°53' E 004°25'0 0.0
2014-Jul-27 11:34N 51°53' E 004°25'0 0.0
2014-Jul-27 10:34N 51°53' E 004°25'0 0.1
2014-Jul-27 09:33N 51°53' E 004°25'0 0.0
2014-Jul-27 08:33N 51°53' E 004°25'7 6.9
2014-Jul-27 07:33N 51°55' E 004°14'1313.0
2014-Jul-27 06:33N 52°01' E 003°55'1716.8
2014-Jul-27 05:32N 52°08' E 003°30'1818.5
2014-Jul-27 04:33N 52°18' E 003°05'1818.2
2014-Jul-27 03:34N 52°28' E 002°41'1817.9
2014-Jul-27 02:34N 52°38' E 002°17'1717.1
2014-Jul-27 01:34N 52°48' E 001°53'1616.5
2014-Jul-27 00:33N 52°59' E 001°32'1717.5
2014-Jul-26 23:33N 53°13' E 001°16'1717.5
2014-Jul-26 22:34N 53°28' E 001°02'1717.1
2014-Jul-26 21:34N 53°42' E 000°46'1616.2
2014-Jul-26 20:33N 53°55' E 000°28'1817.7
2014-Jul-26 19:34N 54°08' E 000°08'1818.3
2014-Jul-26 18:33N 54°21' W 000°14'1918.6
2014-Jul-26 17:32N 54°34' W 000°38'1818.1
2014-Jul-26 16:33N 54°40' W 001°07'4 1.0
2014-Jul-26 13:03N 54°36' W 001°09'0 0.0
2014-Jul-26 12:33N 54°36' W 001°09'0 0.0
2014-Jul-26 11:33N 54°36' W 001°09'0 0.0
2014-Jul-26 10:33N 54°36' W 001°09'0 0.0
2014-Jul-26 09:33N 54°36' W 001°09'0 0.0
2014-Jul-26 08:33N 54°36' W 001°09'1 0.8
2014-Jul-26 07:33N 54°37' W 001°09'1313.5
2014-Jul-26 06:33N 54°46' W 000°52'1818.2
2014-Jul-26 05:33N 54°54' W 000°23'1818.2
2014-Jul-26 04:33N 55°03' E 000°04'1818.5
2014-Jul-26 03:33N 55°12' E 000°32'1818.2
2014-Jul-26 02:33N 55°19' E 001°02'1918.5
2014-Jul-26 01:33N 55°26' E 001°32'1918.7
2014-Jul-26 00:33N 55°34' E 002°01'1918.9
2014-Jul-25 23:33N 55°43' E 002°31'1918.8
2014-Jul-25 22:33N 55°51' E 003°01'1918.6
2014-Jul-25 21:32N 55°60' E 003°31'11418.7
2014-Jul-25 15:25N 56°52' E 006°35'3518.8
2014-Jul-25 13:33N 57°08' E 007°32'1918.9
2014-Jul-25 12:33N 57°16' E 008°03'7518.8
2014-Jul-25 08:33N 57°46' E 010°12'1818.2
2014-Jul-25 07:33N 57°49' E 010°45'1918.6
2014-Jul-25 06:33N 57°36' E 011°11'1818.3
2014-Jul-25 05:33N 57°22' E 011°31'1918.5
2014-Jul-25 04:33N 57°04' E 011°43'1918.6
2014-Jul-25 03:33N 56°47' E 011°56'1919.2
2014-Jul-25 02:32N 56°30' E 012°13'1919.5
2014-Jul-25 01:33N 56°12' E 012°27'1717.3
2014-Jul-25 00:33N 55°57' E 012°43'1716.8
2014-Jul-24 23:33N 55°41' E 012°41'1110.9
2014-Jul-24 22:33N 55°30' E 012°42'1413.6
2014-Jul-24 21:33N 55°17' E 012°48'1918.9
2014-Jul-24 20:33N 55°14' E 013°21'1919.4
2014-Jul-24 19:33N 55°14' E 013°55'1817.6
2014-Jul-24 18:33N 55°20' E 014°24'1919.2
2014-Jul-24 17:33N 55°32' E 014°50'1919.2
2014-Jul-24 16:34N 55°41' E 015°19'2019.5
2014-Jul-24 15:33N 55°51' E 015°49'2019.7
2014-Jul-24 14:33N 56°01' E 016°20'2019.7
2014-Jul-24 13:33N 56°11' E 016°50'2219.5
2014-Jul-24 12:26N 56°24' E 017°22'1719.5
2014-Jul-24 11:33N 56°35' E 017°46'2119.5
2014-Jul-24 10:28N 56°47' E 018°17'1919.6
2014-Jul-24 09:30N 57°02' E 018°39'4419.6
2014-Jul-24 07:15N 57°38' E 019°28'1619.4
2014-Jul-24 06:25N 57°51' E 019°45'1719.6
2014-Jul-24 05:33N 58°04' E 020°05'2019.7
2014-Jul-24 04:33N 58°20' E 020°27'2019.6
2014-Jul-24 03:33N 58°36' E 020°49'2019.3
2014-Jul-24 02:32N 58°52' E 021°10'1919.2
2014-Jul-24 01:33N 59°07' E 021°32'2319.0
2014-Jul-24 00:19N 59°22' E 022°08'2018.6
2014-Jul-23 23:14N 59°32' E 022°43'1319.5
2014-Jul-23 22:33N 59°35' E 023°09'1919.5
2014-Jul-23 21:33N 59°41' E 023°45'3819.2
2014-Jul-23 19:33N 59°55' E 024°56'1616.1
2014-Jul-23 18:33N 60°09' E 025°12'4 0.3
2014-Jul-23 05:13N 60°13' E 025°12'0 0.3
2014-Jul-23 04:33N 60°13' E 025°12'1111.2
2014-Jul-23 03:32N 60°01' E 025°16'1818.5
2014-Jul-23 02:33N 59°58' E 025°51'1918.9
2014-Jul-23 01:33N 60°01' E 026°28'1918.4
2014-Jul-23 00:33N 60°00' E 027°06'1918.9
2014-Jul-22 23:33N 60°10' E 027°37'  
Track history (hours):
 
Tides and Currents Weather Stations Pressure Air Temp Water Temp Dewpoint Dewpoint Depression Visibility Wind Speed Wind Dir Waves Ship Positions

Containerships 6

Last reported at 2014-Aug-01 04:31 UTC. Time now 2014-Aug-01 05:53 UTC.
Position N 59°58' E 026°26'.

Length 155 m; beam 21.8 m; draft 8.9 m.

Type: Ship (hazmat cat A). MMSI: 211315096.

Date/timePositionNaut miles runAvg speedWind from/ knotsBaromVisibWave heightAir tempDewpointWater temp
2014-Aug-01 04:31N 59°58' E 026°26'1918.1
2014-Aug-01 03:29N 59°53' E 025°50'5318.1
2014-Aug-01 00:32N 59°41' E 024°06'1718.0
2014-Jul-31 23:33N 59°36' E 023°33'251 6.1
2014-Jul-30 06:34N 56°36' E 018°03'1817.6
2014-Jul-30 05:33N 56°25' E 017°38'1817.5
2014-Jul-30 04:33N 56°14' E 017°12'1817.6
2014-Jul-30 03:33N 56°04' E 016°47'1817.7
2014-Jul-30 02:33N 55°55' E 016°19'1817.7
2014-Jul-30 01:33N 55°47' E 015°52'1817.8
2014-Jul-30 00:33N 55°38' E 015°24'1817.9
2014-Jul-29 23:33N 55°29' E 014°56'1917.7
2014-Jul-29 22:30N 55°18' E 014°31'1717.7
2014-Jul-29 21:33N 55°05' E 014°12'1717.3
2014-Jul-29 20:33N 54°56' E 013°46'1817.5
2014-Jul-29 19:33N 54°51' E 013°17'1717.3
2014-Jul-29 18:33N 54°45' E 012°49'1716.7
2014-Jul-29 17:33N 54°37' E 012°23'1615.9
2014-Jul-29 16:33N 54°25' E 012°06'1717.2
2014-Jul-29 15:33N 54°28' E 011°37'1818.2
2014-Jul-29 14:33N 54°35' E 011°07'1716.4
2014-Jul-29 13:32N 54°33' E 010°39'25 3.9
2014-Jul-29 07:04N 54°21' E 010°01'6 5.7
2014-Jul-29 06:04N 54°22' E 009°51'3 6.0
2014-Jul-29 05:31N 54°21' E 009°45'11 4.9
2014-Jul-29 03:20N 54°12' E 009°34'12 6.0
2014-Jul-29 01:21N 54°04' E 009°19'6 7.1
2014-Jul-29 00:28N 53°58' E 009°16'3 3.6
2014-Jul-28 23:31N 53°56' E 009°12'3 2.6
2014-Jul-28 22:18N 53°54' E 009°09'6 8.6
2014-Jul-28 21:33N 53°51' E 008°59'1413.7
2014-Jul-28 20:33N 53°57' E 008°38'1616.4
2014-Jul-28 19:33N 53°59' E 008°10'1717.1
2014-Jul-28 18:33N 53°56' E 007°42'1716.5
2014-Jul-28 17:33N 53°53' E 007°14'1616.2
2014-Jul-28 16:33N 53°49' E 006°48'1616.0
2014-Jul-28 15:32N 53°45' E 006°21'1616.1
2014-Jul-28 14:33N 53°40' E 005°56'1616.2
2014-Jul-28 13:33N 53°35' E 005°30'1615.9
2014-Jul-28 12:33N 53°29' E 005°05'1615.9
2014-Jul-28 11:34N 53°22' E 004°41'1616.4
2014-Jul-28 10:33N 53°07' E 004°28'1616.4
2014-Jul-28 09:33N 52°53' E 004°16'1616.3
2014-Jul-28 08:33N 52°38' E 004°03'1616.0
2014-Jul-28 07:33N 52°24' E 003°53'1716.9
2014-Jul-28 06:34N 52°07' E 003°55'1211.7
2014-Jul-28 05:34N 51°58' E 004°08'1010.3
2014-Jul-28 04:33N 51°54' E 004°23'2 1.5
2014-Jul-28 03:33N 51°53' E 004°25'0 0.0
2014-Jul-28 02:34N 51°53' E 004°25'0 0.0
2014-Jul-28 01:33N 51°53' E 004°25'0 0.0
2014-Jul-28 00:34N 51°53' E 004°25'0 0.0
2014-Jul-27 23:34N 51°53' E 004°25'0 0.0
2014-Jul-27 22:34N 51°53' E 004°25'0 0.0
2014-Jul-27 21:33N 51°53' E 004°25'0 0.0
2014-Jul-27 20:33N 51°53' E 004°25'0 0.0
2014-Jul-27 19:33N 51°53' E 004°25'0 0.0
2014-Jul-27 18:33N 51°53' E 004°25'0 0.0
2014-Jul-27 17:33N 51°53' E 004°25'0 0.0
2014-Jul-27 16:34N 51°53' E 004°25'0 0.0
2014-Jul-27 15:33N 51°53' E 004°25'0 0.0
2014-Jul-27 14:34N 51°53' E 004°25'0 0.0
2014-Jul-27 13:34N 51°53' E 004°25'0 0.0
2014-Jul-27 12:34N 51°53' E 004°25'0 0.0
2014-Jul-27 11:34N 51°53' E 004°25'0 0.0
2014-Jul-27 10:34N 51°53' E 004°25'0 0.1
2014-Jul-27 09:33N 51°53' E 004°25'0 0.0
2014-Jul-27 08:33N 51°53' E 004°25'7 6.9
2014-Jul-27 07:33N 51°55' E 004°14'1313.0
2014-Jul-27 06:33N 52°01' E 003°55'1716.8
2014-Jul-27 05:32N 52°08' E 003°30'1818.5
2014-Jul-27 04:33N 52°18' E 003°05'1818.2
2014-Jul-27 03:34N 52°28' E 002°41'1817.9
2014-Jul-27 02:34N 52°38' E 002°17'1717.1
2014-Jul-27 01:34N 52°48' E 001°53'1616.5
2014-Jul-27 00:33N 52°59' E 001°32'1717.5
2014-Jul-26 23:33N 53°13' E 001°16'1717.5
2014-Jul-26 22:34N 53°28' E 001°02'1717.1
2014-Jul-26 21:34N 53°42' E 000°46'1616.2
2014-Jul-26 20:33N 53°55' E 000°28'1817.7
2014-Jul-26 19:34N 54°08' E 000°08'1818.3
2014-Jul-26 18:33N 54°21' W 000°14'1918.6
2014-Jul-26 17:32N 54°34' W 000°38'1818.1
2014-Jul-26 16:33N 54°40' W 001°07'4 1.0
2014-Jul-26 13:03N 54°36' W 001°09'0 0.0
2014-Jul-26 12:33N 54°36' W 001°09'0 0.0
2014-Jul-26 11:33N 54°36' W 001°09'0 0.0
2014-Jul-26 10:33N 54°36' W 001°09'0 0.0
2014-Jul-26 09:33N 54°36' W 001°09'0 0.0
2014-Jul-26 08:33N 54°36' W 001°09'1 0.8
2014-Jul-26 07:33N 54°37' W 001°09'1313.5
2014-Jul-26 06:33N 54°46' W 000°52'1818.2
2014-Jul-26 05:33N 54°54' W 000°23'1818.2
2014-Jul-26 04:33N 55°03' E 000°04'1818.5
2014-Jul-26 03:33N 55°12' E 000°32'1818.2
2014-Jul-26 02:33N 55°19' E 001°02'1918.5
2014-Jul-26 01:33N 55°26' E 001°32'1918.7
2014-Jul-26 00:33N 55°34' E 002°01'1918.9
2014-Jul-25 23:33N 55°43' E 002°31'1918.8
2014-Jul-25 22:33N 55°51' E 003°01'1918.6
2014-Jul-25 21:32N 55°60' E 003°31'11418.7
2014-Jul-25 15:25N 56°52' E 006°35'3518.8
2014-Jul-25 13:33N 57°08' E 007°32'1918.9
2014-Jul-25 12:33N 57°16' E 008°03'7518.8
2014-Jul-25 08:33N 57°46' E 010°12'1818.2
2014-Jul-25 07:33N 57°49' E 010°45'1918.6
2014-Jul-25 06:33N 57°36' E 011°11'1818.3
2014-Jul-25 05:33N 57°22' E 011°31'1918.5
2014-Jul-25 04:33N 57°04' E 011°43'1918.6
2014-Jul-25 03:33N 56°47' E 011°56'1919.2
2014-Jul-25 02:32N 56°30' E 012°13'1919.5
2014-Jul-25 01:33N 56°12' E 012°27'1717.3
2014-Jul-25 00:33N 55°57' E 012°43'1716.8
2014-Jul-24 23:33N 55°41' E 012°41'1110.9
2014-Jul-24 22:33N 55°30' E 012°42'1413.6
2014-Jul-24 21:33N 55°17' E 012°48'1918.9
2014-Jul-24 20:33N 55°14' E 013°21'1919.4
2014-Jul-24 19:33N 55°14' E 013°55'1817.6
2014-Jul-24 18:33N 55°20' E 014°24'1919.2
2014-Jul-24 17:33N 55°32' E 014°50'1919.2
2014-Jul-24 16:34N 55°41' E 015°19'2019.5
2014-Jul-24 15:33N 55°51' E 015°49'2019.7
2014-Jul-24 14:33N 56°01' E 016°20'2019.7
2014-Jul-24 13:33N 56°11' E 016°50'2219.5
2014-Jul-24 12:26N 56°24' E 017°22'1719.5
2014-Jul-24 11:33N 56°35' E 017°46'2119.5
2014-Jul-24 10:28N 56°47' E 018°17'1919.6
2014-Jul-24 09:30N 57°02' E 018°39'4419.6
2014-Jul-24 07:15N 57°38' E 019°28'1619.4
2014-Jul-24 06:25N 57°51' E 019°45'1719.6
2014-Jul-24 05:33N 58°04' E 020°05'2019.7
2014-Jul-24 04:33N 58°20' E 020°27'2019.6
2014-Jul-24 03:33N 58°36' E 020°49'2019.3
2014-Jul-24 02:32N 58°52' E 021°10'1919.2
2014-Jul-24 01:33N 59°07' E 021°32'2319.0
2014-Jul-24 00:19N 59°22' E 022°08'2018.6
2014-Jul-23 23:14N 59°32' E 022°43'1319.5
2014-Jul-23 22:33N 59°35' E 023°09'1919.5
2014-Jul-23 21:33N 59°41' E 023°45'3819.2
2014-Jul-23 19:33N 59°55' E 024°56'1616.1
2014-Jul-23 18:33N 60°09' E 025°12'4 0.3
2014-Jul-23 05:13N 60°13' E 025°12'0 0.3
2014-Jul-23 04:33N 60°13' E 025°12'1111.2
2014-Jul-23 03:32N 60°01' E 025°16'1818.5
2014-Jul-23 02:33N 59°58' E 025°51'1918.9
2014-Jul-23 01:33N 60°01' E 026°28'1918.4
2014-Jul-23 00:33N 60°00' E 027°06'1918.9
2014-Jul-22 23:33N 60°10' E 027°37'  

Dump ship's entire track history